Johnson City, TX (78636)

8:19 AM CDT on October 20, 2014 (GMT -0500)
Hill Country, Tx | Change Station
CLOSE
Current Station
Personal Weather Station
Location: Johnson City, TX
Elevation: 1247 ft
Nearby Weather Stations

Elev 1247 ft 30.27 °N, 98.26 °W | Updated 6 minutes ago

Partly Cloudy
Partly Cloudy
61.5 °F
Feels Like 61.5 °F
N
0.0
Wind Variable Wind from South
Gusts 0.0 mph

Today
High -- | Low -- °F
--% Chance of Precip.
Yesterday
High -- | Low -- °F
Precip. -- in
7:39 AM 6:57 PM
Waning Crescent, 11% visible
Pressure 30.07 in
Visibility 4.0 miles
Clouds Clear
Dew Point 59 °F
Humidity 90%
Rainfall 0.07 in
Snow Depth Not available.
UV 0 out of 12
Pollen 6.20 out of 12
Air Quality Not available.
Flu Activity Sporadic
METAR KDZB 201255Z AUTO 00000KT 4SM BR CLR 14/14 A3007 RMK AO2 T01400140

More Conditions Fewer Conditions

Pressure 30.07 in
Visibility 4.0 miles
Clouds Clear
Dew Point 59 °F
Humidity 90%
Rainfall 0.07 in
Snow Depth Not available.
UV 0 out of 12
Pollen 6.20 out of 12
Air Quality Not available.
Flu Activity Sporadic
METAR KDZB 201255Z AUTO 00000KT 4SM BR CLR 14/14 A3007 RMK AO2 T01400140

More Conditions Fewer Conditions

Nowcast | as of 6:16 am CDT on October 20, 2014

Through 9 am...patchy fog will develop reducing visibility across the area this morning. Visibility will generally be between three and five miles in the fog...but a few places will drop to one mile. Please drive carefully where visibility is reduced.

×

10-Day Weather Forecast

Almanac

Astronomy

Oct. 20, 2014 Rise Set
Actual Time 7:39 AM CDT 6:57 PM CDT
Civil Twilight 7:14 AM CDT 7:21 PM CDT
Nautical Twilight 6:46 AM CDT 7:49 PM CDT
Astronomical Twilight 6:18 AM CDT 8:17 PM CDT
Moon 4:41 AM CDT 5:09 PM CDT
Length of Visible Light 12h 06m
Length of Day
11h 18m
Waning Crescent, 11% of the Moon is Illuminated
Today
Waning Crescent
Oct 23
New
Oct 30
First Quarter
Nov 6
Full
Nov 14
Last Quarter

Today's Extremes

State Highs State Lows

Community

WunderPhotos

Upload Photos

1,763,372 photos uploaded!

Nearby

Snow Depth

Station Depth Elevation
No new snow has been reported.

Earthquake Activity

City Distance Mag. Time & Date
No recent earthquake activity has been reported nearby.
Minimum magnitude displayed is 2.5.

Coastal Water Temperatures

Place Temperature
No Stations Reporting

Nearby Weather Stations